Time;durP1;ratioP1;P1;durP2;ratioP2;P2;SDS_P1;SDS_P2;PMS_P1;PMS_P2;Temp;Humidity;BMP_temperature;BMP_pressure;BME280_temperature;BME280_humidity;BME280_pressure;Samples;Min_cycle;Max_cycle;Signal;HPM_P1;HPM_P2
2021/07/08 00:00:41;;;;;;;7.65;4.93;;;;;;;;;;5072357;28;20359;-49
2021/07/08 00:03:07;;;;;;;8.02;4.50;;;;;;;;;;5073447;28;20028;-49
2021/07/08 00:05:38;;;;;;;11.63;4.57;;;;;;;;;;5073263;28;20159;-49
2021/07/08 00:08:04;;;;;;;7.28;3.88;;;;;;;;;;5072931;28;20348;-48
2021/07/08 00:10:32;;;;;;;5.22;3.78;;;;;;;;;;5072757;28;20740;-49
2021/07/08 00:12:59;;;;;;;15.30;5.35;;;;;;;;;;5073238;28;20104;-49
2021/07/08 00:15:25;;;;;;;11.77;4.07;;;;;;;;;;5072999;28;20538;-48
2021/07/08 00:17:51;;;;;;;9.18;4.72;;;;;;;;;;5073061;28;20063;-48
2021/07/08 00:20:18;;;;;;;10.00;4.78;;;;;;;;;;5071403;28;20032;-49
2021/07/08 00:22:45;;;;;;;11.80;4.63;;;;;;;;;;5071240;28;20095;-49
2021/07/08 00:25:12;;;;;;;9.40;4.53;;;;;;;;;;5072813;28;20020;-48
2021/07/08 00:27:38;;;;;;;9.90;4.70;;;;;;;;;;5073128;28;20371;-48
2021/07/08 00:30:06;;;;;;;16.35;5.13;;;;;;;;;;5072189;28;20123;-49
2021/07/08 00:32:32;;;;;;;11.77;4.68;;;;;;;;;;5072483;28;20029;-49
2021/07/08 00:34:58;;;;;;;9.38;4.60;;;;;;;;;;5072941;28;20031;-48
2021/07/08 00:37:24;;;;;;;11.30;4.95;;;;;;;;;;5073057;28;20505;-49
2021/07/08 00:39:50;;;;;;;16.27;4.75;;;;;;;;;;5073173;28;20025;-49
2021/07/08 00:42:16;;;;;;;12.43;5.25;;;;;;;;;;5071903;28;20106;-49
2021/07/08 00:44:42;;;;;;;17.73;5.47;;;;;;;;;;5072056;28;20052;-48
2021/07/08 00:47:08;;;;;;;14.25;4.68;;;;;;;;;;5072788;28;20027;-49
2021/07/08 00:49:34;;;;;;;7.80;4.60;;;;;;;;;;5072877;28;20029;-48
2021/07/08 00:52:00;;;;;;;8.57;4.72;;;;;;;;;;5071892;28;20497;-49
2021/07/08 00:54:26;;;;;;;8.02;4.30;;;;;;;;;;5072943;28;20111;-49
2021/07/08 00:56:52;;;;;;;7.45;4.63;;;;;;;;;;5072661;28;20351;-49
2021/07/08 00:59:19;;;;;;;9.82;4.80;;;;;;;;;;5072445;28;20029;-49
2021/07/08 01:01:45;;;;;;;10.43;4.57;;;;;;;;;;5071753;28;20021;-48
2021/07/08 01:04:11;;;;;;;13.13;5.00;;;;;;;;;;5076100;28;20033;-48
2021/07/08 01:06:46;;;;;;;11.35;5.85;;;;;;;;;;5076752;28;20350;-49
2021/07/08 01:09:13;;;;;;;11.77;5.43;;;;;;;;;;5076843;28;20043;-48
2021/07/08 01:11:39;;;;;;;15.63;4.57;;;;;;;;;;5076068;28;20017;-48
2021/07/08 01:14:06;;;;;;;7.70;4.57;;;;;;;;;;5076476;28;20028;-48
2021/07/08 01:16:32;;;;;;;10.60;5.10;;;;;;;;;;5076201;28;20048;-48
2021/07/08 01:18:58;;;;;;;9.57;4.57;;;;;;;;;;5076526;28;20028;-49
2021/07/08 01:21:28;;;;;;;9.25;5.28;;;;;;;;;;5073618;28;20036;-48
2021/07/08 01:23:55;;;;;;;12.95;5.57;;;;;;;;;;5076478;28;20024;-48
2021/07/08 01:26:22;;;;;;;11.48;4.85;;;;;;;;;;5076079;28;20325;-49
2021/07/08 01:28:49;;;;;;;8.73;5.00;;;;;;;;;;5076648;28;20086;-49
2021/07/08 01:31:15;;;;;;;10.98;5.13;;;;;;;;;;5075201;28;20024;-48
2021/07/08 01:33:41;;;;;;;15.30;5.55;;;;;;;;;;5076231;28;20053;-48
2021/07/08 01:36:07;;;;;;;11.50;5.15;;;;;;;;;;5076404;28;20540;-49
2021/07/08 01:38:33;;;;;;;7.82;4.65;;;;;;;;;;5076135;28;20013;-49
2021/07/08 01:40:59;;;;;;;8.50;4.70;;;;;;;;;;5075507;28;20363;-48
2021/07/08 01:43:25;;;;;;;13.82;5.03;;;;;;;;;;5074337;28;20232;-49
2021/07/08 01:45:51;;;;;;;16.02;5.68;;;;;;;;;;5076129;28;20029;-48
2021/07/08 01:48:17;;;;;;;12.95;6.15;;;;;;;;;;5075702;28;20031;-49
2021/07/08 01:50:43;;;;;;;9.18;5.47;;;;;;;;;;5075365;28;20129;-49
2021/07/08 01:53:09;;;;;;;9.52;5.15;;;;;;;;;;5075768;28;20104;-49
2021/07/08 01:55:35;;;;;;;10.38;5.20;;;;;;;;;;5075895;28;20020;-48
2021/07/08 01:58:02;;;;;;;7.97;4.35;;;;;;;;;;5075253;28;20029;-49
2021/07/08 02:00:28;;;;;;;10.70;4.60;;;;;;;;;;5075821;28;20029;-49
2021/07/08 02:02:56;;;;;;;10.32;4.75;;;;;;;;;;5074778;28;20436;-48
2021/07/08 02:05:22;;;;;;;7.55;4.60;;;;;;;;;;5075670;28;20372;-48
2021/07/08 02:07:49;;;;;;;9.88;5.22;;;;;;;;;;5075440;28;20021;-48
2021/07/08 02:10:16;;;;;;;11.32;4.63;;;;;;;;;;5075009;28;20033;-48
2021/07/08 02:12:43;;;;;;;8.95;5.07;;;;;;;;;;5074942;28;20425;-49
2021/07/08 02:15:10;;;;;;;10.35;4.25;;;;;;;;;;5075173;28;20028;-48
2021/07/08 02:17:36;;;;;;;9.43;4.32;;;;;;;;;;5074949;28;20127;-49
2021/07/08 02:20:03;;;;;;;8.00;4.60;;;;;;;;;;5075272;28;20033;-48
2021/07/08 02:22:31;;;;;;;8.20;4.20;;;;;;;;;;5074704;28;20028;-48
2021/07/08 02:24:57;;;;;;;9.13;4.65;;;;;;;;;;5074933;28;20028;-48
2021/07/08 02:27:23;;;;;;;7.45;4.25;;;;;;;;;;5073718;28;20032;-49
2021/07/08 02:29:49;;;;;;;11.30;4.75;;;;;;;;;;5064200;28;20349;-49
2021/07/08 02:32:16;;;;;;;9.82;5.30;;;;;;;;;;5073730;28;20039;-48
2021/07/08 02:34:42;;;;;;;8.48;4.57;;;;;;;;;;5074776;28;20519;-48
2021/07/08 02:37:08;;;;;;;9.38;5.05;;;;;;;;;;5074814;28;20486;-49
2021/07/08 02:39:34;;;;;;;9.80;5.03;;;;;;;;;;5074851;28;20038;-49
2021/07/08 02:42:00;;;;;;;10.18;5.25;;;;;;;;;;5074143;28;20023;-48
2021/07/08 02:44:27;;;;;;;15.00;5.68;;;;;;;;;;5073739;28;20028;-48
2021/07/08 02:46:53;;;;;;;8.40;5.15;;;;;;;;;;5075452;28;20017;-48
2021/07/08 02:49:19;;;;;;;9.95;6.03;;;;;;;;;;5074529;28;20039;-49
2021/07/08 02:51:45;;;;;;;13.40;5.55;;;;;;;;;;5073664;28;20240;-48
2021/07/08 02:54:11;;;;;;;12.55;5.50;;;;;;;;;;5074899;28;20345;-49
2021/07/08 02:56:37;;;;;;;13.90;5.43;;;;;;;;;;5074545;28;20021;-49
2021/07/08 02:59:03;;;;;;;9.10;5.55;;;;;;;;;;5074714;28;20089;-49
2021/07/08 03:01:29;;;;;;;9.82;5.55;;;;;;;;;;5073731;28;20121;-49
2021/07/08 03:03:55;;;;;;;9.25;5.55;;;;;;;;;;5074327;28;20523;-49
2021/07/08 03:06:21;;;;;;;11.70;5.47;;;;;;;;;;5073048;28;20017;-49
2021/07/08 03:08:47;;;;;;;9.60;5.50;;;;;;;;;;5074448;28;20463;-49
2021/07/08 03:11:13;;;;;;;10.65;5.70;;;;;;;;;;5073800;28;20028;-49
2021/07/08 03:13:42;;;;;;;10.98;5.57;;;;;;;;;;5074073;28;20457;-49
2021/07/08 03:16:09;;;;;;;10.80;5.05;;;;;;;;;;5074501;28;20056;-49
2021/07/08 03:18:35;;;;;;;12.70;6.07;;;;;;;;;;5073936;28;20081;-49
2021/07/08 03:21:01;;;;;;;9.68;5.18;;;;;;;;;;5073303;28;20047;-49
2021/07/08 03:23:27;;;;;;;9.45;5.20;;;;;;;;;;5074167;28;20025;-49
2021/07/08 03:25:53;;;;;;;10.38;5.72;;;;;;;;;;5073286;28;20414;-49
2021/07/08 03:28:19;;;;;;;10.20;4.88;;;;;;;;;;5074156;28;20070;-49
2021/07/08 03:30:45;;;;;;;11.52;4.57;;;;;;;;;;5069716;28;20468;-49
2021/07/08 03:33:11;;;;;;;8.13;4.75;;;;;;;;;;5073821;28;20030;-49
2021/07/08 03:35:37;;;;;;;8.65;4.57;;;;;;;;;;5073716;28;20032;-49
2021/07/08 03:38:04;;;;;;;14.07;6.03;;;;;;;;;;5073994;28;20052;-48
2021/07/08 03:40:32;;;;;;;11.43;5.75;;;;;;;;;;5073495;28;20344;-48
2021/07/08 03:42:58;;;;;;;12.70;4.95;;;;;;;;;;5073677;28;20044;-49
2021/07/08 03:45:25;;;;;;;10.82;5.35;;;;;;;;;;5073227;28;20029;-49
2021/07/08 03:47:52;;;;;;;11.98;6.60;;;;;;;;;;5071690;28;20068;-48
2021/07/08 03:50:18;;;;;;;9.48;5.13;;;;;;;;;;5073052;28;20455;-49
2021/07/08 03:52:45;;;;;;;8.98;4.93;;;;;;;;;;5073177;28;20082;-49
2021/07/08 03:55:14;;;;;;;18.33;5.97;;;;;;;;;;5073748;28;20029;-49
2021/07/08 03:57:53;;;;;;;13.65;6.35;;;;;;;;;;5073798;28;20024;-48
2021/07/08 04:00:24;;;;;;;14.68;7.03;;;;;;;;;;5072958;28;20112;-48
2021/07/08 04:02:50;;;;;;;18.48;7.18;;;;;;;;;;5072528;28;20089;-49
2021/07/08 04:05:16;;;;;;;13.70;7.50;;;;;;;;;;5073308;28;20066;-49
2021/07/08 04:07:43;;;;;;;14.88;7.20;;;;;;;;;;5073273;28;20029;-48
2021/07/08 04:10:09;;;;;;;15.38;6.70;;;;;;;;;;5073273;28;20032;-48
2021/07/08 04:12:35;;;;;;;14.00;6.85;;;;;;;;;;5072751;28;20021;-48
2021/07/08 04:15:01;;;;;;;11.80;6.25;;;;;;;;;;5073021;28;20484;-48
2021/07/08 04:17:27;;;;;;;13.95;5.80;;;;;;;;;;5073097;28;20040;-48
2021/07/08 04:19:53;;;;;;;10.95;5.20;;;;;;;;;;5072583;28;20107;-48
2021/07/08 04:22:19;;;;;;;11.45;5.07;;;;;;;;;;5072344;28;20111;-48
2021/07/08 04:24:45;;;;;;;8.98;4.43;;;;;;;;;;5073079;28;20027;-48
2021/07/08 04:27:12;;;;;;;8.75;3.85;;;;;;;;;;5072809;28;20286;-48
2021/07/08 04:29:38;;;;;;;9.70;4.15;;;;;;;;;;5072982;28;20037;-48
2021/07/08 04:32:04;;;;;;;4.57;3.38;;;;;;;;;;5072318;28;20023;-49
2021/07/08 04:34:30;;;;;;;7.70;3.92;;;;;;;;;;5072821;28;20104;-49
2021/07/08 04:36:56;;;;;;;7.85;4.50;;;;;;;;;;5073011;28;20514;-49
2021/07/08 04:39:23;;;;;;;8.25;3.40;;;;;;;;;;5072982;28;20111;-49
2021/07/08 04:41:49;;;;;;;7.18;3.47;;;;;;;;;;5072230;28;20027;-48
2021/07/08 04:44:15;;;;;;;6.45;4.15;;;;;;;;;;5072714;28;20048;-49
2021/07/08 04:46:41;;;;;;;5.10;3.08;;;;;;;;;;5073084;28;20017;-48
2021/07/08 04:49:07;;;;;;;6.63;3.22;;;;;;;;;;5072507;28;20032;-48
2021/07/08 04:51:33;;;;;;;4.45;3.40;;;;;;;;;;5071597;28;20435;-49
2021/07/08 04:53:59;;;;;;;6.30;3.05;;;;;;;;;;5072826;28;20063;-49
2021/07/08 04:56:25;;;;;;;6.15;3.55;;;;;;;;;;5072808;28;20436;-49
2021/07/08 04:58:50;;;;;;;4.53;2.90;;;;;;;;;;5072271;28;20039;-49
2021/07/08 05:01:17;;;;;;;5.30;3.45;;;;;;;;;;5072204;28;20025;-49
2021/07/08 05:03:42;;;;;;;4.10;2.78;;;;;;;;;;5072992;28;20028;-49
2021/07/08 05:06:08;;;;;;;7.60;4.20;;;;;;;;;;5072211;28;20526;-49
2021/07/08 05:08:35;;;;;;;5.40;3.38;;;;;;;;;;5072436;28;20043;-49
2021/07/08 05:11:01;;;;;;;11.77;3.25;;;;;;;;;;5068184;28;20063;-49
2021/07/08 05:13:27;;;;;;;3.75;2.80;;;;;;;;;;5053069;28;20356;-49
2021/07/08 05:15:53;;;;;;;4.53;2.78;;;;;;;;;;5052432;28;20029;-49
2021/07/08 05:18:19;;;;;;;4.38;2.92;;;;;;;;;;5052508;28;20108;-49
2021/07/08 05:20:45;;;;;;;6.75;3.33;;;;;;;;;;5057792;28;20116;-49
2021/07/08 05:23:17;;;;;;;5.20;3.28;;;;;;;;;;5071728;28;20439;-49
2021/07/08 05:25:43;;;;;;;6.65;3.08;;;;;;;;;;5071689;28;20390;-48
2021/07/08 05:28:10;;;;;;;8.85;3.38;;;;;;;;;;5070871;28;20032;-48
2021/07/08 05:30:36;;;;;;;5.38;3.00;;;;;;;;;;5071348;28;20131;-49
2021/07/08 05:33:02;;;;;;;8.52;3.38;;;;;;;;;;5072387;28;20051;-50
2021/07/08 05:35:28;;;;;;;4.03;2.60;;;;;;;;;;5072333;28;20029;-49
2021/07/08 05:37:54;;;;;;;4.53;3.00;;;;;;;;;;5072038;28;20062;-50
2021/07/08 05:40:20;;;;;;;8.48;2.60;;;;;;;;;;5071805;28;20029;-50
2021/07/08 05:42:47;;;;;;;4.30;2.58;;;;;;;;;;5071537;28;20029;-50
2021/07/08 05:45:13;;;;;;;5.28;2.70;;;;;;;;;;5071039;28;20186;-50
2021/07/08 05:47:39;;;;;;;8.52;3.10;;;;;;;;;;5072456;28;20028;-50
2021/07/08 05:50:05;;;;;;;5.72;3.20;;;;;;;;;;5074536;28;20032;-50
2021/07/08 05:52:31;;;;;;;7.10;2.25;;;;;;;;;;5074911;28;20039;-50
2021/07/08 05:54:57;;;;;;;4.88;2.05;;;;;;;;;;5076199;28;20020;-50
2021/07/08 05:57:24;;;;;;;2.10;1.85;;;;;;;;;;5075482;28;20386;-50
2021/07/08 05:59:50;;;;;;;2.22;1.60;;;;;;;;;;5075839;28;20345;-49
2021/07/08 06:02:16;;;;;;;1.50;1.15;;;;;;;;;;5074774;28;20025;-50
2021/07/08 06:04:42;;;;;;;4.03;1.63;;;;;;;;;;5075751;28;20451;-50
2021/07/08 06:07:08;;;;;;;1.90;1.60;;;;;;;;;;5075040;28;20070;-50
2021/07/08 06:09:34;;;;;;;4.75;1.33;;;;;;;;;;5075476;28;20364;-50
2021/07/08 06:12:00;;;;;;;1.98;1.30;;;;;;;;;;5074726;28;20017;-50
2021/07/08 06:14:26;;;;;;;1.25;1.15;;;;;;;;;;5075843;28;20332;-50
2021/07/08 06:16:52;;;;;;;2.85;1.40;;;;;;;;;;5075277;28;20021;-50
2021/07/08 06:19:18;;;;;;;5.28;0.93;;;;;;;;;;5075320;28;20085;-50
2021/07/08 06:21:44;;;;;;;4.53;1.20;;;;;;;;;;5074544;28;20028;-50
2021/07/08 06:24:10;;;;;;;1.38;1.00;;;;;;;;;;5075019;28;20040;-50
2021/07/08 06:26:37;;;;;;;1.40;1.10;;;;;;;;;;5075124;28;20028;-50
2021/07/08 06:29:03;;;;;;;3.55;1.27;;;;;;;;;;5075089;28;20031;-50
2021/07/08 06:31:29;;;;;;;3.80;1.38;;;;;;;;;;5074864;28;20055;-50
2021/07/08 06:33:55;;;;;;;1.55;1.35;;;;;;;;;;5075134;28;20082;-50
2021/07/08 06:36:21;;;;;;;1.50;1.10;;;;;;;;;;5075527;28;20435;-50
2021/07/08 06:38:47;;;;;;;1.73;1.52;;;;;;;;;;5074922;28;20020;-50
2021/07/08 06:41:13;;;;;;;1.73;1.45;;;;;;;;;;5074088;28;20051;-50
2021/07/08 06:43:39;;;;;;;1.83;1.25;;;;;;;;;;5074911;28;20028;-50
2021/07/08 06:46:05;;;;;;;3.47;1.73;;;;;;;;;;5073286;28;20051;-50
2021/07/08 06:48:31;;;;;;;3.45;1.95;;;;;;;;;;5074777;28;20025;-50
2021/07/08 06:50:57;;;;;;;3.10;1.67;;;;;;;;;;5073654;28;20021;-50
2021/07/08 06:53:23;;;;;;;5.55;1.60;;;;;;;;;;5074510;28;20032;-50
2021/07/08 06:55:49;;;;;;;2.55;1.13;;;;;;;;;;5074740;28;20278;-50
2021/07/08 06:58:15;;;;;;;3.88;1.30;;;;;;;;;;5074852;28;20025;-50
2021/07/08 07:00:42;;;;;;;1.52;1.08;;;;;;;;;;5072907;28;20078;-49
2021/07/08 07:03:08;;;;;;;2.85;1.27;;;;;;;;;;5074235;28;20024;-49
2021/07/08 07:05:34;;;;;;;0.98;0.82;;;;;;;;;;5074360;28;20182;-50
2021/07/08 07:08:00;;;;;;;2.00;1.50;;;;;;;;;;5074519;28;20033;-50
2021/07/08 07:10:27;;;;;;;1.30;1.02;;;;;;;;;;5074758;28;20386;-50
2021/07/08 07:12:54;;;;;;;1.13;1.00;;;;;;;;;;5073681;28;20052;-50
2021/07/08 07:15:22;;;;;;;2.15;1.45;;;;;;;;;;5074409;28;20084;-50
2021/07/08 07:17:48;;;;;;;5.82;1.35;;;;;;;;;;5074419;28;20031;-50
2021/07/08 07:20:15;;;;;;;4.40;1.00;;;;;;;;;;5073590;28;20025;-49
2021/07/08 07:22:45;;;;;;;1.75;1.58;;;;;;;;;;5073462;28;20024;-50
2021/07/08 07:25:11;;;;;;;;;;;;;;;;;;5074399;28;20025;-50
2021/07/08 07:27:37;;;;;;;7.18;1.00;;;;;;;;;;5074099;28;20381;-50
2021/07/08 07:30:05;;;;;;;6.53;2.00;;;;;;;;;;5074218;28;20068;-50
2021/07/08 07:32:31;;;;;;;2.35;1.30;;;;;;;;;;5072986;28;20469;-50
2021/07/08 07:34:57;;;;;;;1.65;1.48;;;;;;;;;;5074116;28;20032;-50
2021/07/08 07:37:24;;;;;;;11.50;1.55;;;;;;;;;;5073679;28;20479;-50
2021/07/08 07:39:50;;;;;;;2.60;1.67;;;;;;;;;;5073852;28;20078;-50
2021/07/08 07:42:16;;;;;;;2.33;1.27;;;;;;;;;;5073298;28;20214;-50
2021/07/08 07:44:47;;;;;;;1.15;1.05;;;;;;;;;;5072459;28;20031;-50
2021/07/08 07:47:13;;;;;;;1.73;1.30;;;;;;;;;;5073568;28;20352;-50
2021/07/08 07:49:39;;;;;;;1.88;1.42;;;;;;;;;;5072957;28;20106;-50
2021/07/08 07:52:06;;;;;;;1.45;1.17;;;;;;;;;;5072946;28;20025;-50
2021/07/08 07:54:35;;;;;;;9.70;1.10;;;;;;;;;;5072985;28;20027;-50
2021/07/08 07:57:05;;;;;;;1.10;1.00;;;;;;;;;;5074117;28;20021;-50
2021/07/08 07:59:32;;;;;;;1.42;1.00;;;;;;;;;;5073132;28;20329;-50
2021/07/08 08:01:58;;;;;;;1.17;1.02;;;;;;;;;;5072181;28;20048;-50
2021/07/08 08:04:28;;;;;;;1.15;1.00;;;;;;;;;;5073379;28;20048;-50
2021/07/08 08:09:39;;;;;;;1.65;1.25;;;;;;;;;;5072978;28;20051;-50
2021/07/08 08:12:05;;;;;;;1.70;0.90;;;;;;;;;;5072196;28;20024;-50
2021/07/08 08:14:31;;;;;;;1.98;0.88;;;;;;;;;;5073063;28;20436;-50
2021/07/08 08:16:58;;;;;;;1.10;1.00;;;;;;;;;;5073045;28;20016;-50
2021/07/08 08:19:24;;;;;;;1.95;1.02;;;;;;;;;;5073207;28;20039;-50
2021/07/08 08:21:50;;;;;;;1.00;0.88;;;;;;;;;;5072186;28;20115;-50
2021/07/08 08:24:16;;;;;;;1.13;0.93;;;;;;;;;;5072880;28;20031;-50
2021/07/08 08:26:42;;;;;;;1.42;1.33;;;;;;;;;;5073167;28;20028;-50
2021/07/08 08:29:08;;;;;;;6.35;1.55;;;;;;;;;;5072613;28;20029;-50
2021/07/08 08:31:34;;;;;;;1.17;1.02;;;;;;;;;;5072562;28;20036;-50
2021/07/08 08:34:00;;;;;;;2.00;1.27;;;;;;;;;;5073021;28;20027;-50
2021/07/08 08:36:26;;;;;;;1.58;1.20;;;;;;;;;;5072472;28;20032;-50
2021/07/08 08:38:52;;;;;;;2.47;1.20;;;;;;;;;;5071767;28;20031;-50
2021/07/08 08:41:18;;;;;;;2.58;1.23;;;;;;;;;;5071851;28;20351;-50
2021/07/08 08:43:45;;;;;;;2.88;1.60;;;;;;;;;;5072710;28;20021;-50
2021/07/08 08:46:12;;;;;;;1.35;1.20;;;;;;;;;;5073089;28;20052;-50
2021/07/08 08:48:38;;;;;;;0.60;0.60;;;;;;;;;;5070927;28;20044;-50
2021/07/08 08:51:06;;;;;;;1.60;0.98;;;;;;;;;;5071700;28;20423;-50
2021/07/08 08:53:32;;;;;;;0.70;0.70;;;;;;;;;;5072601;28;20027;-49
2021/07/08 08:55:58;;;;;;;3.53;1.08;;;;;;;;;;5072925;28;20029;-49
2021/07/08 08:58:25;;;;;;;1.33;0.90;;;;;;;;;;5072967;28;20420;-50
2021/07/08 09:00:52;;;;;;;1.05;0.95;;;;;;;;;;5071633;28;20056;-50
2021/07/08 09:03:20;;;;;;;0.70;0.70;;;;;;;;;;5072883;28;20024;-49
2021/07/08 09:05:48;;;;;;;0.82;0.70;;;;;;;;;;5072556;28;20388;-50
2021/07/08 09:08:21;;;;;;;1.90;1.10;;;;;;;;;;5072866;28;20024;-50
2021/07/08 09:11:20;;;;;;;4.25;1.02;;;;;;;;;;5071660;28;20071;-50
2021/07/08 09:13:53;;;;;;;0.75;0.70;;;;;;;;;;5029976;28;20037;-50
2021/07/08 09:16:40;;;;;;;0.60;0.60;;;;;;;;;;5029975;28;20036;-50
2021/07/08 09:19:10;;;;;;;0.80;0.80;;;;;;;;;;5030024;28;20071;-50
2021/07/08 09:21:38;;;;;;;0.85;0.70;;;;;;;;;;5029363;28;20065;-50
2021/07/08 09:24:04;;;;;;;1.52;0.82;;;;;;;;;;5030882;28;20095;-50
2021/07/08 09:26:30;;;;;;;2.08;0.90;;;;;;;;;;5033686;28;20356;-50
2021/07/08 09:29:22;;;;;;;3.08;1.05;;;;;;;;;;5033672;28;20068;-50
2021/07/08 09:31:57;;;;;;;0.60;0.60;;;;;;;;;;5030713;28;20072;-50
2021/07/08 09:34:24;;;;;;;2.05;1.00;;;;;;;;;;5033477;28;20036;-50
2021/07/08 09:37:07;;;;;;;4.78;2.00;;;;;;;;;;5033879;28;20038;-49
2021/07/08 09:39:40;;;;;;;2.45;0.85;;;;;;;;;;5033243;28;20131;-49
2021/07/08 09:42:06;;;;;;;1.05;0.93;;;;;;;;;;5033112;28;20315;-49
2021/07/08 09:44:33;;;;;;;0.90;0.82;;;;;;;;;;5033635;28;20026;-50
2021/07/08 09:46:59;;;;;;;5.07;1.20;;;;;;;;;;5031666;28;20025;-50
2021/07/08 09:49:26;;;;;;;2.67;1.08;;;;;;;;;;5055558;28;20046;-50
2021/07/08 09:51:52;;;;;;;0.70;0.70;;;;;;;;;;5075060;28;20024;-50
2021/07/08 09:55:00;;;;;;;3.53;1.30;;;;;;;;;;5076140;28;20028;-50
2021/07/08 09:57:32;;;;;;;1.35;0.90;;;;;;;;;;5075636;28;20025;-50
2021/07/08 09:59:59;;;;;;;1.10;0.98;;;;;;;;;;5075975;28;20043;-49
2021/07/08 10:02:32;;;;;;;2.60;1.20;;;;;;;;;;5075097;28;20029;-50
2021/07/08 10:04:59;;;;;;;0.98;0.88;;;;;;;;;;5075794;28;20020;-50
2021/07/08 10:07:25;;;;;;;0.98;0.90;;;;;;;;;;5075394;28;20098;-50
2021/07/08 10:09:51;;;;;;;1.10;1.00;;;;;;;;;;5075692;28;20041;-50
2021/07/08 10:12:18;;;;;;;1.60;1.00;;;;;;;;;;5074686;28;20024;-50
2021/07/08 10:14:46;;;;;;;2.47;1.20;;;;;;;;;;5075304;28;20508;-50
2021/07/08 10:17:12;;;;;;;1.30;1.02;;;;;;;;;;5074207;28;20475;-50
2021/07/08 10:19:42;;;;;;;3.70;1.10;;;;;;;;;;5075583;28;20097;-50
2021/07/08 10:22:08;;;;;;;0.77;0.77;;;;;;;;;;5074868;28;20032;-50
2021/07/08 10:24:35;;;;;;;1.45;1.35;;;;;;;;;;5074986;28;20398;-50
2021/07/08 10:27:00;;;;;;;1.23;1.08;;;;;;;;;;5075261;28;20109;-50
2021/07/08 10:29:27;;;;;;;5.07;1.00;;;;;;;;;;5074877;28;20083;-50
2021/07/08 10:31:53;;;;;;;1.55;1.25;;;;;;;;;;5074885;28;20037;-50
2021/07/08 10:34:20;;;;;;;5.05;1.13;;;;;;;;;;5075040;28;20032;-50
2021/07/08 10:36:47;;;;;;;1.92;1.35;;;;;;;;;;5075080;28;20020;-50
2021/07/08 10:39:15;;;;;;;1.67;1.10;;;;;;;;;;5075089;28;20017;-50
2021/07/08 10:41:42;;;;;;;1.15;0.98;;;;;;;;;;5074173;28;20029;-50
2021/07/08 10:44:27;;;;;;;2.00;1.30;;;;;;;;;;5074881;28;20048;-50
2021/07/08 10:46:53;;;;;;;1.17;1.08;;;;;;;;;;5074847;28;20024;-50
2021/07/08 10:49:19;;;;;;;5.10;1.23;;;;;;;;;;5075080;28;20032;-50
2021/07/08 10:51:45;;;;;;;4.60;1.10;;;;;;;;;;5073768;28;20329;-50
2021/07/08 10:54:30;;;;;;;2.45;1.20;;;;;;;;;;5075192;28;20024;-50
2021/07/08 10:56:57;;;;;;;1.20;1.10;;;;;;;;;;5074554;28;20028;-50
2021/07/08 10:59:23;;;;;;;1.15;1.05;;;;;;;;;;5074272;28;20348;-50
2021/07/08 11:01:51;;;;;;;3.00;0.95;;;;;;;;;;5074014;28;20029;-50
2021/07/08 11:04:37;;;;;;;1.58;1.15;;;;;;;;;;5075081;28;20092;-50
2021/07/08 11:07:13;;;;;;;1.75;1.10;;;;;;;;;;5074286;28;20054;-50
2021/07/08 11:09:53;;;;;;;1.50;1.00;;;;;;;;;;5074357;28;20074;-50
2021/07/08 11:12:28;;;;;;;5.43;1.02;;;;;;;;;;5073937;28;20017;-50
2021/07/08 11:14:54;;;;;;;2.00;1.00;;;;;;;;;;5074261;28;20112;-50
2021/07/08 11:17:20;;;;;;;0.80;0.80;;;;;;;;;;5074479;28;20445;-50
2021/07/08 11:19:48;;;;;;;2.53;1.27;;;;;;;;;;5073978;28;20028;-50
2021/07/08 11:22:25;;;;;;;1.55;1.08;;;;;;;;;;5073645;28;20412;-50
2021/07/08 11:24:51;;;;;;;2.35;1.40;;;;;;;;;;5073583;28;20456;-50
2021/07/08 11:27:17;;;;;;;1.35;0.88;;;;;;;;;;5074278;28;20028;-50
2021/07/08 11:29:47;;;;;;;5.88;1.13;;;;;;;;;;5073741;28;20036;-50
2021/07/08 11:32:24;;;;;;;1.08;0.80;;;;;;;;;;5073278;28;20029;-50
2021/07/08 11:34:51;;;;;;;1.40;0.82;;;;;;;;;;5073978;28;20459;-50
2021/07/08 11:37:21;;;;;;;1.73;0.80;;;;;;;;;;5073742;28;20048;-50
2021/07/08 11:39:48;;;;;;;5.70;1.20;;;;;;;;;;5073420;28;20029;-50
2021/07/08 11:42:14;;;;;;;0.88;0.88;;;;;;;;;;5073099;28;20111;-50
2021/07/08 11:44:42;;;;;;;1.88;0.93;;;;;;;;;;5073500;28;20055;-50
2021/07/08 11:47:08;;;;;;;2.42;1.02;;;;;;;;;;5073071;28;20016;-50
2021/07/08 11:49:34;;;;;;;3.60;1.35;;;;;;;;;;5073388;28;20039;-50
2021/07/08 11:52:15;;;;;;;3.03;1.60;;;;;;;;;;5072462;28;20394;-50
2021/07/08 11:54:58;;;;;;;2.20;1.80;;;;;;;;;;5072339;28;20020;-49
2021/07/08 11:57:24;;;;;;;2.03;1.83;;;;;;;;;;5073208;28;20360;-49
2021/07/08 11:59:50;;;;;;;4.30;1.25;;;;;;;;;;5073985;28;20024;-50
2021/07/08 12:02:35;;;;;;;7.47;1.58;;;;;;;;;;5072509;28;20020;-50
2021/07/08 12:05:14;;;;;;;3.20;1.88;;;;;;;;;;5073490;28;20103;-50
2021/07/08 12:07:41;;;;;;;4.22;1.80;;;;;;;;;;5073058;28;20029;-50
2021/07/08 12:10:08;;;;;;;5.88;1.70;;;;;;;;;;5073150;28;20482;-50
2021/07/08 12:12:34;;;;;;;7.32;2.22;;;;;;;;;;5072870;28;20025;-50
2021/07/08 12:15:01;;;;;;;3.53;1.75;;;;;;;;;;5072828;28;20028;-49
2021/07/08 12:17:28;;;;;;;4.72;2.08;;;;;;;;;;5073380;28;20052;-50
2021/07/08 12:20:11;;;;;;;3.50;2.20;;;;;;;;;;5072744;28;20032;-50
2021/07/08 12:22:53;;;;;;;4.70;1.88;;;;;;;;;;5071605;28;20586;-50
2021/07/08 12:25:20;;;;;;;3.70;2.42;;;;;;;;;;5072465;28;20024;-50
2021/07/08 12:27:46;;;;;;;2.75;1.98;;;;;;;;;;5072475;28;20359;-50
2021/07/08 12:30:19;;;;;;;2.60;1.95;;;;;;;;;;5072112;28;20086;-50
2021/07/08 12:32:45;;;;;;;3.03;1.92;;;;;;;;;;5070896;28;20039;-50
2021/07/08 12:35:12;;;;;;;3.72;1.83;;;;;;;;;;5072597;28;20159;-49
2021/07/08 12:37:39;;;;;;;6.03;2.17;;;;;;;;;;5071911;28;20376;-50
2021/07/08 12:40:15;;;;;;;4.75;2.38;;;;;;;;;;5072289;28;20025;-50
2021/07/08 12:42:44;;;;;;;4.28;2.20;;;;;;;;;;5071409;28;20027;-50
2021/07/08 12:45:14;;;;;;;8.27;3.53;;;;;;;;;;5071673;28;20040;-50
2021/07/08 12:47:42;;;;;;;4.20;2.60;;;;;;;;;;5072111;28;20016;-49
2021/07/08 12:50:09;;;;;;;6.10;2.10;;;;;;;;;;5071866;28;20523;-49
2021/07/08 12:52:38;;;;;;;7.00;3.30;;;;;;;;;;5071240;28;20021;-49
2021/07/08 12:55:05;;;;;;;5.85;2.78;;;;;;;;;;5071828;28;20435;-49
2021/07/08 12:57:31;;;;;;;10.70;3.08;;;;;;;;;;5071945;28;20029;-49
2021/07/08 13:00:04;;;;;;;7.63;2.58;;;;;;;;;;5070298;28;20028;-49
2021/07/08 13:02:32;;;;;;;6.25;2.83;;;;;;;;;;5071345;28;20025;-50
2021/07/08 13:05:11;;;;;;;7.13;2.80;;;;;;;;;;5071883;28;20099;-50
2021/07/08 13:07:38;;;;;;;5.05;2.58;;;;;;;;;;5072199;28;20037;-49
2021/07/08 13:10:06;;;;;;;5.60;2.40;;;;;;;;;;5071302;28;20043;-49
2021/07/08 13:12:32;;;;;;;3.47;2.15;;;;;;;;;;5071242;28;20099;-50
2021/07/08 13:14:58;;;;;;;8.70;2.65;;;;;;;;;;5071498;28;20048;-50
2021/07/08 13:17:32;;;;;;;5.82;2.50;;;;;;;;;;5071731;28;20028;-50
2021/07/08 13:20:06;;;;;;;6.35;2.20;;;;;;;;;;5032889;28;1120205;-50
2021/07/08 13:22:53;;;;;;;2.63;1.70;;;;;;;;;;5071929;28;20055;-50
2021/07/08 13:25:21;;;;;;;4.00;1.98;;;;;;;;;;5072705;28;20017;-50
2021/07/08 13:27:48;;;;;;;3.95;1.95;;;;;;;;;;5072136;28;20048;-50
2021/07/08 13:30:36;;;;;;;3.55;2.20;;;;;;;;;;5072392;28;20040;-50
2021/07/08 13:33:02;;;;;;;3.80;1.38;;;;;;;;;;5072196;28;20024;-50
2021/07/08 13:35:48;;;;;;;7.03;1.70;;;;;;;;;;5072626;28;20089;-49
2021/07/08 13:38:15;;;;;;;2.60;0.93;;;;;;;;;;5072283;28;20036;-50
2021/07/08 13:40:41;;;;;;;2.45;1.40;;;;;;;;;;5071601;28;20027;-50
2021/07/08 13:43:14;;;;;;;1.58;1.08;;;;;;;;;;5072184;28;20042;-50
2021/07/08 13:45:40;;;;;;;1.20;1.08;;;;;;;;;;5072277;28;20031;-50
2021/07/08 13:48:16;;;;;;;5.68;1.30;;;;;;;;;;5071928;28;20463;-50
2021/07/08 13:50:42;;;;;;;3.60;1.20;;;;;;;;;;5071371;28;20075;-50
2021/07/08 13:53:08;;;;;;;3.40;1.25;;;;;;;;;;5072101;28;20020;-50
2021/07/08 13:55:34;;;;;;;1.58;0.90;;;;;;;;;;5072101;28;20359;-50
2021/07/08 13:58:00;;;;;;;1.27;0.80;;;;;;;;;;5071733;28;20044;-50
2021/07/08 14:00:26;;;;;;;1.73;0.88;;;;;;;;;;5072512;28;20035;-50
2021/07/08 14:02:52;;;;;;;1.17;0.95;;;;;;;;;;5071538;28;20013;-50
2021/07/08 14:05:20;;;;;;;1.30;1.13;;;;;;;;;;5072073;28;20028;-50
2021/07/08 14:07:46;;;;;;;1.02;0.98;;;;;;;;;;5071794;28;20031;-50
2021/07/08 14:10:12;;;;;;;0.82;0.80;;;;;;;;;;5073419;28;20123;-50
2021/07/08 14:12:38;;;;;;;1.42;1.20;;;;;;;;;;5074247;28;20087;-50
2021/07/08 14:15:04;;;;;;;1.00;0.90;;;;;;;;;;5075699;28;20028;-50
2021/07/08 14:17:30;;;;;;;0.73;0.73;;;;;;;;;;5075420;28;20029;-50
2021/07/08 14:19:56;;;;;;;0.90;0.80;;;;;;;;;;5075403;28;20052;-50
2021/07/08 14:22:22;;;;;;;1.15;0.90;;;;;;;;;;5074425;28;20047;-50
2021/07/08 14:24:48;;;;;;;2.03;1.00;;;;;;;;;;5075172;28;20025;-50
2021/07/08 14:27:14;;;;;;;2.05;1.00;;;;;;;;;;5075166;28;20024;-50
2021/07/08 14:29:40;;;;;;;3.08;0.80;;;;;;;;;;5075676;28;20029;-51
2021/07/08 14:32:06;;;;;;;0.70;0.70;;;;;;;;;;5074636;28;20028;-50
2021/07/08 14:34:32;;;;;;;1.55;0.73;;;;;;;;;;5075120;28;20467;-50
2021/07/08 14:36:59;;;;;;;2.20;0.95;;;;;;;;;;5075312;28;20104;-50
2021/07/08 14:39:25;;;;;;;1.38;1.13;;;;;;;;;;5068376;28;20028;-50
2021/07/08 14:42:00;;;;;;;0.68;0.68;;;;;;;;;;5072932;28;20107;-50
2021/07/08 14:44:32;;;;;;;5.25;1.05;;;;;;;;;;5067689;28;20032;-51
2021/07/08 14:46:58;;;;;;;0.95;0.70;;;;;;;;;;5074707;28;20044;-49